sensor_id;sensor_type;location;lat;lon;timestamp;P1;durP1;ratioP1;P2;durP2;ratioP2
5762;SDS011;2906;53.282;9.508;2023-11-21T00:00:51;20.95;;;9.27;;
5762;SDS011;2906;53.282;9.508;2023-11-21T00:01:53;20.85;;;8.82;;
5762;SDS011;2906;53.282;9.508;2023-11-21T00:02:54;20.85;;;10.48;;
5762;SDS011;2906;53.282;9.508;2023-11-21T00:03:58;25.83;;;10.70;;
5762;SDS011;2906;53.282;9.508;2023-11-21T00:05:01;20.67;;;9.40;;
5762;SDS011;2906;53.282;9.508;2023-11-21T00:06:03;18.88;;;9.68;;
5762;SDS011;2906;53.282;9.508;2023-11-21T00:07:09;17.88;;;9.43;;
5762;SDS011;2906;53.282;9.508;2023-11-21T00:08:11;22.80;;;10.73;;
5762;SDS011;2906;53.282;9.508;2023-11-21T00:09:13;20.88;;;9.52;;
5762;SDS011;2906;53.282;9.508;2023-11-21T00:10:15;18.95;;;10.10;;
5762;SDS011;2906;53.282;9.508;2023-11-21T00:11:16;19.77;;;9.57;;
5762;SDS011;2906;53.282;9.508;2023-11-21T00:12:19;18.77;;;9.63;;
5762;SDS011;2906;53.282;9.508;2023-11-21T00:13:20;20.23;;;10.30;;
5762;SDS011;2906;53.282;9.508;2023-11-21T00:14:22;18.60;;;9.93;;
5762;SDS011;2906;53.282;9.508;2023-11-21T00:15:24;20.00;;;9.73;;
5762;SDS011;2906;53.282;9.508;2023-11-21T00:16:26;21.45;;;9.02;;
5762;SDS011;2906;53.282;9.508;2023-11-21T00:17:27;19.27;;;9.52;;
5762;SDS011;2906;53.282;9.508;2023-11-21T00:18:30;17.27;;;8.75;;
5762;SDS011;2906;53.282;9.508;2023-11-21T00:19:32;18.15;;;7.85;;
5762;SDS011;2906;53.282;9.508;2023-11-21T00:20:35;17.42;;;8.93;;
5762;SDS011;2906;53.282;9.508;2023-11-21T00:21:36;19.00;;;8.15;;
5762;SDS011;2906;53.282;9.508;2023-11-21T00:22:38;19.73;;;8.90;;
5762;SDS011;2906;53.282;9.508;2023-11-21T00:23:40;18.95;;;9.55;;
5762;SDS011;2906;53.282;9.508;2023-11-21T00:24:41;18.50;;;8.70;;
5762;SDS011;2906;53.282;9.508;2023-11-21T00:25:43;25.05;;;9.52;;
5762;SDS011;2906;53.282;9.508;2023-11-21T00:26:44;20.70;;;9.70;;
5762;SDS011;2906;53.282;9.508;2023-11-21T00:27:48;18.52;;;9.32;;
5762;SDS011;2906;53.282;9.508;2023-11-21T00:28:49;22.55;;;8.90;;
5762;SDS011;2906;53.282;9.508;2023-11-21T00:29:51;19.65;;;9.15;;
5762;SDS011;2906;53.282;9.508;2023-11-21T00:30:54;19.60;;;9.25;;
5762;SDS011;2906;53.282;9.508;2023-11-21T00:31:57;19.00;;;9.25;;
5762;SDS011;2906;53.282;9.508;2023-11-21T00:32:58;18.63;;;8.93;;
5762;SDS011;2906;53.282;9.508;2023-11-21T00:34:00;18.65;;;9.43;;
5762;SDS011;2906;53.282;9.508;2023-11-21T00:35:03;17.15;;;9.70;;
5762;SDS011;2906;53.282;9.508;2023-11-21T00:36:06;17.08;;;8.45;;
5762;SDS011;2906;53.282;9.508;2023-11-21T00:37:09;22.40;;;9.07;;
5762;SDS011;2906;53.282;9.508;2023-11-21T00:38:11;16.83;;;8.98;;
5762;SDS011;2906;53.282;9.508;2023-11-21T00:39:13;21.65;;;8.75;;
5762;SDS011;2906;53.282;9.508;2023-11-21T00:40:15;15.68;;;8.68;;
5762;SDS011;2906;53.282;9.508;2023-11-21T00:41:19;13.60;;;8.10;;
5762;SDS011;2906;53.282;9.508;2023-11-21T00:42:21;17.77;;;8.63;;
5762;SDS011;2906;53.282;9.508;2023-11-21T00:43:22;25.83;;;8.35;;
5762;SDS011;2906;53.282;9.508;2023-11-21T00:44:25;17.48;;;7.40;;
5762;SDS011;2906;53.282;9.508;2023-11-21T00:45:26;12.05;;;7.63;;
5762;SDS011;2906;53.282;9.508;2023-11-21T00:46:28;13.70;;;7.05;;
5762;SDS011;2906;53.282;9.508;2023-11-21T00:47:29;17.58;;;7.85;;
5762;SDS011;2906;53.282;9.508;2023-11-21T00:48:31;13.35;;;7.15;;
5762;SDS011;2906;53.282;9.508;2023-11-21T00:49:33;14.07;;;8.35;;
5762;SDS011;2906;53.282;9.508;2023-11-21T00:50:36;15.68;;;7.15;;
5762;SDS011;2906;53.282;9.508;2023-11-21T00:51:37;19.45;;;7.25;;
5762;SDS011;2906;53.282;9.508;2023-11-21T00:52:39;15.23;;;7.32;;
5762;SDS011;2906;53.282;9.508;2023-11-21T00:53:41;14.00;;;7.80;;
5762;SDS011;2906;53.282;9.508;2023-11-21T00:54:43;13.60;;;7.05;;
5762;SDS011;2906;53.282;9.508;2023-11-21T00:55:44;12.48;;;7.07;;
5762;SDS011;2906;53.282;9.508;2023-11-21T00:56:47;26.73;;;7.90;;
5762;SDS011;2906;53.282;9.508;2023-11-21T00:57:49;18.10;;;6.90;;
5762;SDS011;2906;53.282;9.508;2023-11-21T00:58:51;16.85;;;7.80;;
5762;SDS011;2906;53.282;9.508;2023-11-21T00:59:52;12.07;;;7.25;;
5762;SDS011;2906;53.282;9.508;2023-11-21T01:00:54;16.75;;;8.43;;
5762;SDS011;2906;53.282;9.508;2023-11-21T01:01:56;15.52;;;7.97;;
5762;SDS011;2906;53.282;9.508;2023-11-21T01:03:00;12.85;;;8.40;;
5762;SDS011;2906;53.282;9.508;2023-11-21T01:04:02;16.70;;;8.38;;
5762;SDS011;2906;53.282;9.508;2023-11-21T01:05:04;17.17;;;9.20;;
5762;SDS011;2906;53.282;9.508;2023-11-21T01:06:09;17.58;;;9.00;;
5762;SDS011;2906;53.282;9.508;2023-11-21T01:07:11;13.23;;;8.60;;
5762;SDS011;2906;53.282;9.508;2023-11-21T01:08:13;17.73;;;9.50;;
5762;SDS011;2906;53.282;9.508;2023-11-21T01:09:16;14.93;;;8.80;;
5762;SDS011;2906;53.282;9.508;2023-11-21T01:10:18;14.30;;;9.13;;
5762;SDS011;2906;53.282;9.508;2023-11-21T01:11:20;16.00;;;8.95;;
5762;SDS011;2906;53.282;9.508;2023-11-21T01:12:22;20.15;;;9.68;;
5762;SDS011;2906;53.282;9.508;2023-11-21T01:13:25;14.25;;;8.80;;
5762;SDS011;2906;53.282;9.508;2023-11-21T01:14:28;14.65;;;8.98;;
5762;SDS011;2906;53.282;9.508;2023-11-21T01:15:29;18.77;;;9.63;;
5762;SDS011;2906;53.282;9.508;2023-11-21T01:16:31;17.80;;;9.43;;
5762;SDS011;2906;53.282;9.508;2023-11-21T01:17:33;16.67;;;8.93;;
5762;SDS011;2906;53.282;9.508;2023-11-21T01:18:34;22.30;;;9.45;;
5762;SDS011;2906;53.282;9.508;2023-11-21T01:19:36;20.20;;;9.85;;
5762;SDS011;2906;53.282;9.508;2023-11-21T01:20:38;15.20;;;9.15;;
5762;SDS011;2906;53.282;9.508;2023-11-21T01:21:41;18.83;;;9.73;;
5762;SDS011;2906;53.282;9.508;2023-11-21T01:22:43;28.25;;;9.90;;
5762;SDS011;2906;53.282;9.508;2023-11-21T01:23:44;14.18;;;9.40;;
5762;SDS011;2906;53.282;9.508;2023-11-21T01:24:47;20.60;;;10.30;;
5762;SDS011;2906;53.282;9.508;2023-11-21T01:25:48;22.65;;;10.68;;
5762;SDS011;2906;53.282;9.508;2023-11-21T01:26:51;19.80;;;9.82;;
5762;SDS011;2906;53.282;9.508;2023-11-21T01:27:52;22.58;;;11.45;;
5762;SDS011;2906;53.282;9.508;2023-11-21T01:28:56;20.52;;;11.57;;
5762;SDS011;2906;53.282;9.508;2023-11-21T01:29:57;20.17;;;11.65;;
5762;SDS011;2906;53.282;9.508;2023-11-21T01:30:59;18.27;;;11.23;;
5762;SDS011;2906;53.282;9.508;2023-11-21T01:32:02;23.95;;;11.65;;
5762;SDS011;2906;53.282;9.508;2023-11-21T01:33:04;21.27;;;12.18;;
5762;SDS011;2906;53.282;9.508;2023-11-21T01:34:06;25.98;;;12.05;;
5762;SDS011;2906;53.282;9.508;2023-11-21T01:35:08;22.65;;;11.20;;
5762;SDS011;2906;53.282;9.508;2023-11-21T01:36:10;19.95;;;11.10;;
5762;SDS011;2906;53.282;9.508;2023-11-21T01:37:13;24.13;;;11.20;;
5762;SDS011;2906;53.282;9.508;2023-11-21T01:38:15;20.38;;;10.88;;
5762;SDS011;2906;53.282;9.508;2023-11-21T01:39:17;18.52;;;10.55;;
5762;SDS011;2906;53.282;9.508;2023-11-21T01:40:23;18.02;;;10.60;;
5762;SDS011;2906;53.282;9.508;2023-11-21T01:41:25;19.40;;;9.30;;
5762;SDS011;2906;53.282;9.508;2023-11-21T01:42:27;19.38;;;10.43;;
5762;SDS011;2906;53.282;9.508;2023-11-21T01:43:30;16.52;;;9.32;;
5762;SDS011;2906;53.282;9.508;2023-11-21T01:44:32;15.93;;;9.60;;
5762;SDS011;2906;53.282;9.508;2023-11-21T01:45:33;19.05;;;8.98;;
5762;SDS011;2906;53.282;9.508;2023-11-21T01:46:35;15.30;;;8.35;;
5762;SDS011;2906;53.282;9.508;2023-11-21T01:47:38;14.60;;;8.95;;
5762;SDS011;2906;53.282;9.508;2023-11-21T01:48:41;18.67;;;9.38;;
5762;SDS011;2906;53.282;9.508;2023-11-21T01:49:43;23.02;;;10.40;;
5762;SDS011;2906;53.282;9.508;2023-11-21T01:50:45;17.08;;;8.93;;
5762;SDS011;2906;53.282;9.508;2023-11-21T01:51:47;21.63;;;8.85;;
5762;SDS011;2906;53.282;9.508;2023-11-21T01:52:51;16.83;;;8.45;;
5762;SDS011;2906;53.282;9.508;2023-11-21T01:53:53;15.18;;;8.65;;
5762;SDS011;2906;53.282;9.508;2023-11-21T01:54:55;19.88;;;8.93;;
5762;SDS011;2906;53.282;9.508;2023-11-21T01:55:56;17.05;;;8.57;;
5762;SDS011;2906;53.282;9.508;2023-11-21T01:57:00;16.88;;;8.60;;
5762;SDS011;2906;53.282;9.508;2023-11-21T01:58:02;19.20;;;8.73;;
5762;SDS011;2906;53.282;9.508;2023-11-21T01:59:05;19.23;;;9.25;;
5762;SDS011;2906;53.282;9.508;2023-11-21T02:00:07;18.40;;;9.40;;
5762;SDS011;2906;53.282;9.508;2023-11-21T02:01:16;18.05;;;9.30;;
5762;SDS011;2906;53.282;9.508;2023-11-21T02:02:18;21.50;;;9.70;;
5762;SDS011;2906;53.282;9.508;2023-11-21T02:03:20;21.30;;;8.57;;
5762;SDS011;2906;53.282;9.508;2023-11-21T02:04:23;19.85;;;9.32;;
5762;SDS011;2906;53.282;9.508;2023-11-21T02:05:25;21.90;;;9.20;;
5762;SDS011;2906;53.282;9.508;2023-11-21T02:06:26;22.98;;;10.13;;
5762;SDS011;2906;53.282;9.508;2023-11-21T02:07:31;22.20;;;10.35;;
5762;SDS011;2906;53.282;9.508;2023-11-21T02:08:33;20.38;;;9.50;;
5762;SDS011;2906;53.282;9.508;2023-11-21T02:09:37;20.38;;;9.35;;
5762;SDS011;2906;53.282;9.508;2023-11-21T02:10:42;20.15;;;9.55;;
5762;SDS011;2906;53.282;9.508;2023-11-21T02:11:44;19.75;;;9.65;;
5762;SDS011;2906;53.282;9.508;2023-11-21T02:12:45;20.45;;;9.68;;
5762;SDS011;2906;53.282;9.508;2023-11-21T02:13:47;17.33;;;9.73;;
5762;SDS011;2906;53.282;9.508;2023-11-21T02:14:50;23.00;;;10.10;;
5762;SDS011;2906;53.282;9.508;2023-11-21T02:15:51;22.13;;;9.77;;
5762;SDS011;2906;53.282;9.508;2023-11-21T02:16:54;22.95;;;10.05;;
5762;SDS011;2906;53.282;9.508;2023-11-21T02:17:57;19.15;;;10.25;;
5762;SDS011;2906;53.282;9.508;2023-11-21T02:19:00;21.77;;;9.85;;
5762;SDS011;2906;53.282;9.508;2023-11-21T02:20:02;22.65;;;10.88;;
5762;SDS011;2906;53.282;9.508;2023-11-21T02:21:03;29.63;;;11.35;;
5762;SDS011;2906;53.282;9.508;2023-11-21T02:22:06;21.85;;;10.05;;
5762;SDS011;2906;53.282;9.508;2023-11-21T02:23:09;20.33;;;9.60;;
5762;SDS011;2906;53.282;9.508;2023-11-21T02:24:10;27.92;;;10.27;;
5762;SDS011;2906;53.282;9.508;2023-11-21T02:25:13;20.25;;;10.13;;
5762;SDS011;2906;53.282;9.508;2023-11-21T02:26:14;21.25;;;10.48;;
5762;SDS011;2906;53.282;9.508;2023-11-21T02:27:17;20.85;;;9.73;;
5762;SDS011;2906;53.282;9.508;2023-11-21T02:28:21;22.65;;;10.07;;
5762;SDS011;2906;53.282;9.508;2023-11-21T02:29:25;24.30;;;9.35;;
5762;SDS011;2906;53.282;9.508;2023-11-21T02:30:28;21.70;;;10.25;;
5762;SDS011;2906;53.282;9.508;2023-11-21T02:31:31;19.48;;;10.95;;
5762;SDS011;2906;53.282;9.508;2023-11-21T02:32:33;21.38;;;11.18;;
5762;SDS011;2906;53.282;9.508;2023-11-21T02:33:35;38.97;;;12.13;;
5762;SDS011;2906;53.282;9.508;2023-11-21T02:34:37;26.73;;;11.98;;
5762;SDS011;2906;53.282;9.508;2023-11-21T02:35:39;22.90;;;11.32;;
5762;SDS011;2906;53.282;9.508;2023-11-21T02:36:40;28.15;;;11.05;;
5762;SDS011;2906;53.282;9.508;2023-11-21T02:37:43;28.20;;;11.73;;
5762;SDS011;2906;53.282;9.508;2023-11-21T02:38:46;26.48;;;11.80;;
5762;SDS011;2906;53.282;9.508;2023-11-21T02:39:48;22.90;;;11.40;;
5762;SDS011;2906;53.282;9.508;2023-11-21T02:40:50;21.30;;;11.18;;
5762;SDS011;2906;53.282;9.508;2023-11-21T02:41:52;26.20;;;12.55;;
5762;SDS011;2906;53.282;9.508;2023-11-21T02:42:53;22.38;;;11.70;;
5762;SDS011;2906;53.282;9.508;2023-11-21T02:43:57;29.15;;;11.30;;
5762;SDS011;2906;53.282;9.508;2023-11-21T02:44:59;20.05;;;12.13;;
5762;SDS011;2906;53.282;9.508;2023-11-21T02:46:01;21.73;;;10.57;;
5762;SDS011;2906;53.282;9.508;2023-11-21T02:47:02;24.98;;;11.23;;
5762;SDS011;2906;53.282;9.508;2023-11-21T02:48:04;22.42;;;11.27;;
5762;SDS011;2906;53.282;9.508;2023-11-21T02:49:06;24.15;;;10.88;;
5762;SDS011;2906;53.282;9.508;2023-11-21T02:50:10;19.67;;;11.38;;
5762;SDS011;2906;53.282;9.508;2023-11-21T02:51:11;20.17;;;11.27;;
5762;SDS011;2906;53.282;9.508;2023-11-21T02:52:15;29.48;;;12.50;;
5762;SDS011;2906;53.282;9.508;2023-11-21T02:53:17;34.72;;;12.32;;
5762;SDS011;2906;53.282;9.508;2023-11-21T02:54:20;22.55;;;12.52;;
5762;SDS011;2906;53.282;9.508;2023-11-21T02:55:23;25.50;;;11.63;;
5762;SDS011;2906;53.282;9.508;2023-11-21T02:56:26;23.45;;;12.88;;
5762;SDS011;2906;53.282;9.508;2023-11-21T02:57:27;21.73;;;12.35;;
5762;SDS011;2906;53.282;9.508;2023-11-21T02:58:28;25.25;;;11.77;;
5762;SDS011;2906;53.282;9.508;2023-11-21T02:59:30;20.85;;;11.77;;
5762;SDS011;2906;53.282;9.508;2023-11-21T03:00:31;28.85;;;12.43;;
5762;SDS011;2906;53.282;9.508;2023-11-21T03:01:34;28.95;;;12.73;;
5762;SDS011;2906;53.282;9.508;2023-11-21T03:02:35;21.27;;;11.57;;
5762;SDS011;2906;53.282;9.508;2023-11-21T03:03:38;20.60;;;11.85;;
5762;SDS011;2906;53.282;9.508;2023-11-21T03:04:40;18.92;;;10.32;;
5762;SDS011;2906;53.282;9.508;2023-11-21T03:05:42;26.67;;;12.48;;
5762;SDS011;2906;53.282;9.508;2023-11-21T03:06:43;20.02;;;11.13;;
5762;SDS011;2906;53.282;9.508;2023-11-21T03:07:46;18.77;;;11.30;;
5762;SDS011;2906;53.282;9.508;2023-11-21T03:08:47;21.88;;;11.60;;
5762;SDS011;2906;53.282;9.508;2023-11-21T03:09:51;20.83;;;10.80;;
5762;SDS011;2906;53.282;9.508;2023-11-21T03:10:52;19.10;;;11.55;;
5762;SDS011;2906;53.282;9.508;2023-11-21T03:11:54;20.45;;;12.68;;
5762;SDS011;2906;53.282;9.508;2023-11-21T03:12:55;29.70;;;12.27;;
5762;SDS011;2906;53.282;9.508;2023-11-21T03:13:58;21.52;;;11.43;;
5762;SDS011;2906;53.282;9.508;2023-11-21T03:14:59;24.65;;;12.35;;
5762;SDS011;2906;53.282;9.508;2023-11-21T03:16:01;24.17;;;12.18;;
5762;SDS011;2906;53.282;9.508;2023-11-21T03:17:04;24.75;;;12.70;;
5762;SDS011;2906;53.282;9.508;2023-11-21T03:18:05;22.58;;;12.25;;
5762;SDS011;2906;53.282;9.508;2023-11-21T03:19:08;27.63;;;12.68;;
5762;SDS011;2906;53.282;9.508;2023-11-21T03:20:09;22.10;;;12.38;;
5762;SDS011;2906;53.282;9.508;2023-11-21T03:21:12;20.10;;;12.23;;
5762;SDS011;2906;53.282;9.508;2023-11-21T03:22:13;25.45;;;13.43;;
5762;SDS011;2906;53.282;9.508;2023-11-21T03:23:15;22.88;;;12.77;;
5762;SDS011;2906;53.282;9.508;2023-11-21T03:24:16;17.30;;;11.43;;
5762;SDS011;2906;53.282;9.508;2023-11-21T03:25:21;23.65;;;12.60;;
5762;SDS011;2906;53.282;9.508;2023-11-21T03:26:24;21.05;;;12.38;;
5762;SDS011;2906;53.282;9.508;2023-11-21T03:27:26;21.80;;;12.82;;
5762;SDS011;2906;53.282;9.508;2023-11-21T03:28:27;19.33;;;12.35;;
5762;SDS011;2906;53.282;9.508;2023-11-21T03:29:30;23.70;;;13.00;;
5762;SDS011;2906;53.282;9.508;2023-11-21T03:30:31;21.05;;;12.00;;
5762;SDS011;2906;53.282;9.508;2023-11-21T03:31:33;24.45;;;12.88;;
5762;SDS011;2906;53.282;9.508;2023-11-21T03:32:34;23.77;;;12.70;;
5762;SDS011;2906;53.282;9.508;2023-11-21T03:33:36;23.02;;;12.10;;
5762;SDS011;2906;53.282;9.508;2023-11-21T03:34:52;23.98;;;12.38;;
5762;SDS011;2906;53.282;9.508;2023-11-21T03:35:55;21.95;;;12.20;;
5762;SDS011;2906;53.282;9.508;2023-11-21T03:36:56;26.73;;;12.60;;
5762;SDS011;2906;53.282;9.508;2023-11-21T03:37:58;19.88;;;11.55;;
5762;SDS011;2906;53.282;9.508;2023-11-21T03:39:00;17.85;;;10.80;;
5762;SDS011;2906;53.282;9.508;2023-11-21T03:40:02;19.77;;;11.57;;
5762;SDS011;2906;53.282;9.508;2023-11-21T03:41:06;22.63;;;11.05;;
5762;SDS011;2906;53.282;9.508;2023-11-21T03:42:10;17.35;;;11.07;;
5762;SDS011;2906;53.282;9.508;2023-11-21T03:43:11;18.27;;;11.25;;
5762;SDS011;2906;53.282;9.508;2023-11-21T03:44:13;16.73;;;10.93;;
5762;SDS011;2906;53.282;9.508;2023-11-21T03:45:15;19.60;;;11.65;;
5762;SDS011;2906;53.282;9.508;2023-11-21T03:46:17;18.42;;;11.30;;
5762;SDS011;2906;53.282;9.508;2023-11-21T03:47:18;18.30;;;10.63;;
5762;SDS011;2906;53.282;9.508;2023-11-21T03:48:20;18.38;;;10.90;;
5762;SDS011;2906;53.282;9.508;2023-11-21T03:49:23;17.23;;;10.52;;
5762;SDS011;2906;53.282;9.508;2023-11-21T03:50:25;16.05;;;10.38;;
5762;SDS011;2906;53.282;9.508;2023-11-21T03:51:26;23.63;;;10.45;;
5762;SDS011;2906;53.282;9.508;2023-11-21T03:52:28;18.50;;;9.95;;
5762;SDS011;2906;53.282;9.508;2023-11-21T03:53:29;23.42;;;10.90;;
5762;SDS011;2906;53.282;9.508;2023-11-21T03:54:31;19.88;;;10.75;;
5762;SDS011;2906;53.282;9.508;2023-11-21T03:55:33;16.85;;;10.35;;
5762;SDS011;2906;53.282;9.508;2023-11-21T03:56:36;17.90;;;10.07;;
5762;SDS011;2906;53.282;9.508;2023-11-21T03:57:37;17.88;;;10.60;;
5762;SDS011;2906;53.282;9.508;2023-11-21T03:58:39;14.80;;;9.68;;
5762;SDS011;2906;53.282;9.508;2023-11-21T03:59:41;19.55;;;10.98;;
5762;SDS011;2906;53.282;9.508;2023-11-21T04:00:42;16.17;;;9.90;;
5762;SDS011;2906;53.282;9.508;2023-11-21T04:01:44;20.23;;;10.10;;
5762;SDS011;2906;53.282;9.508;2023-11-21T04:02:46;17.50;;;9.60;;
5762;SDS011;2906;53.282;9.508;2023-11-21T04:03:48;16.25;;;9.90;;
5762;SDS011;2906;53.282;9.508;2023-11-21T04:04:49;19.38;;;9.88;;
5762;SDS011;2906;53.282;9.508;2023-11-21T04:05:52;16.90;;;9.55;;
5762;SDS011;2906;53.282;9.508;2023-11-21T04:06:53;17.27;;;10.23;;
5762;SDS011;2906;53.282;9.508;2023-11-21T04:07:55;15.77;;;9.95;;
5762;SDS011;2906;53.282;9.508;2023-11-21T04:08:56;19.83;;;10.30;;
5762;SDS011;2906;53.282;9.508;2023-11-21T04:09:59;17.45;;;9.70;;
5762;SDS011;2906;53.282;9.508;2023-11-21T04:11:00;19.83;;;10.15;;
5762;SDS011;2906;53.282;9.508;2023-11-21T04:12:02;18.25;;;9.82;;
5762;SDS011;2906;53.282;9.508;2023-11-21T04:13:05;18.88;;;9.43;;
5762;SDS011;2906;53.282;9.508;2023-11-21T04:14:06;15.77;;;9.38;;
5762;SDS011;2906;53.282;9.508;2023-11-21T04:15:09;14.35;;;9.60;;
5762;SDS011;2906;53.282;9.508;2023-11-21T04:16:10;17.05;;;9.80;;
5762;SDS011;2906;53.282;9.508;2023-11-21T04:17:12;15.23;;;8.82;;
5762;SDS011;2906;53.282;9.508;2023-11-21T04:18:14;13.95;;;8.90;;
5762;SDS011;2906;53.282;9.508;2023-11-21T04:19:16;15.25;;;9.05;;
5762;SDS011;2906;53.282;9.508;2023-11-21T04:20:17;16.55;;;9.73;;
5762;SDS011;2906;53.282;9.508;2023-11-21T04:21:19;18.42;;;10.27;;
5762;SDS011;2906;53.282;9.508;2023-11-21T04:22:20;15.55;;;9.40;;
5762;SDS011;2906;53.282;9.508;2023-11-21T04:23:22;17.95;;;9.73;;
5762;SDS011;2906;53.282;9.508;2023-11-21T04:24:24;14.10;;;8.57;;
5762;SDS011;2906;53.282;9.508;2023-11-21T04:25:25;20.13;;;10.50;;
5762;SDS011;2906;53.282;9.508;2023-11-21T04:26:28;14.63;;;9.65;;
5762;SDS011;2906;53.282;9.508;2023-11-21T04:27:31;17.55;;;10.77;;
5762;SDS011;2906;53.282;9.508;2023-11-21T04:28:32;16.73;;;8.82;;
5762;SDS011;2906;53.282;9.508;2023-11-21T04:29:34;13.05;;;8.45;;
5762;SDS011;2906;53.282;9.508;2023-11-21T04:30:36;15.85;;;9.65;;
5762;SDS011;2906;53.282;9.508;2023-11-21T04:31:39;18.35;;;10.10;;
5762;SDS011;2906;53.282;9.508;2023-11-21T04:32:41;14.35;;;9.05;;
5762;SDS011;2906;53.282;9.508;2023-11-21T04:33:44;18.88;;;11.20;;
5762;SDS011;2906;53.282;9.508;2023-11-21T04:34:45;14.10;;;8.45;;
5762;SDS011;2906;53.282;9.508;2023-11-21T04:35:47;17.13;;;9.73;;
5762;SDS011;2906;53.282;9.508;2023-11-21T04:36:49;13.77;;;9.65;;
5762;SDS011;2906;53.282;9.508;2023-11-21T04:37:51;19.65;;;10.45;;
5762;SDS011;2906;53.282;9.508;2023-11-21T04:38:52;18.17;;;9.65;;
5762;SDS011;2906;53.282;9.508;2023-11-21T04:39:54;15.82;;;9.40;;
5762;SDS011;2906;53.282;9.508;2023-11-21T04:40:55;13.88;;;9.57;;
5762;SDS011;2906;53.282;9.508;2023-11-21T04:41:58;16.73;;;9.30;;
5762;SDS011;2906;53.282;9.508;2023-11-21T04:43:00;15.40;;;9.50;;
5762;SDS011;2906;53.282;9.508;2023-11-21T04:44:04;17.00;;;10.27;;
5762;SDS011;2906;53.282;9.508;2023-11-21T04:45:05;18.42;;;8.70;;
5762;SDS011;2906;53.282;9.508;2023-11-21T04:46:10;17.75;;;9.35;;
5762;SDS011;2906;53.282;9.508;2023-11-21T04:47:11;18.98;;;9.38;;
5762;SDS011;2906;53.282;9.508;2023-11-21T04:48:14;17.13;;;10.27;;
5762;SDS011;2906;53.282;9.508;2023-11-21T04:49:15;17.30;;;10.15;;
5762;SDS011;2906;53.282;9.508;2023-11-21T04:50:18;16.70;;;10.10;;
5762;SDS011;2906;53.282;9.508;2023-11-21T04:51:20;16.33;;;10.05;;
5762;SDS011;2906;53.282;9.508;2023-11-21T04:52:21;12.85;;;9.18;;
5762;SDS011;2906;53.282;9.508;2023-11-21T04:53:24;14.75;;;9.63;;
5762;SDS011;2906;53.282;9.508;2023-11-21T04:54:25;18.77;;;10.40;;
5762;SDS011;2906;53.282;9.508;2023-11-21T04:55:27;17.00;;;10.02;;
5762;SDS011;2906;53.282;9.508;2023-11-21T04:56:28;16.33;;;9.65;;
5762;SDS011;2906;53.282;9.508;2023-11-21T04:57:31;19.23;;;9.98;;
5762;SDS011;2906;53.282;9.508;2023-11-21T04:58:33;17.83;;;9.75;;
5762;SDS011;2906;53.282;9.508;2023-11-21T04:59:36;16.13;;;9.88;;
5762;SDS011;2906;53.282;9.508;2023-11-21T05:00:37;20.33;;;10.70;;
5762;SDS011;2906;53.282;9.508;2023-11-21T05:01:40;17.88;;;9.90;;
5762;SDS011;2906;53.282;9.508;2023-11-21T05:02:41;18.95;;;10.65;;
5762;SDS011;2906;53.282;9.508;2023-11-21T05:03:44;14.75;;;9.95;;
5762;SDS011;2906;53.282;9.508;2023-11-21T05:04:46;18.77;;;9.80;;
5762;SDS011;2906;53.282;9.508;2023-11-21T05:05:48;17.98;;;10.45;;
5762;SDS011;2906;53.282;9.508;2023-11-21T05:06:50;17.17;;;10.52;;
5762;SDS011;2906;53.282;9.508;2023-11-21T05:07:52;15.70;;;9.75;;
5762;SDS011;2906;53.282;9.508;2023-11-21T05:08:53;16.92;;;9.35;;
5762;SDS011;2906;53.282;9.508;2023-11-21T05:09:55;18.02;;;10.48;;
5762;SDS011;2906;53.282;9.508;2023-11-21T05:10:57;16.52;;;10.30;;
5762;SDS011;2906;53.282;9.508;2023-11-21T05:11:59;17.05;;;10.30;;
5762;SDS011;2906;53.282;9.508;2023-11-21T05:13:00;16.85;;;10.27;;
5762;SDS011;2906;53.282;9.508;2023-11-21T05:14:04;17.70;;;10.55;;
5762;SDS011;2906;53.282;9.508;2023-11-21T05:15:07;15.45;;;9.73;;
5762;SDS011;2906;53.282;9.508;2023-11-21T05:16:10;18.73;;;11.10;;
5762;SDS011;2906;53.282;9.508;2023-11-21T05:17:12;16.92;;;10.38;;
5762;SDS011;2906;53.282;9.508;2023-11-21T05:18:14;17.77;;;10.50;;
5762;SDS011;2906;53.282;9.508;2023-11-21T05:19:16;17.70;;;10.43;;
5762;SDS011;2906;53.282;9.508;2023-11-21T05:20:18;15.82;;;10.40;;
5762;SDS011;2906;53.282;9.508;2023-11-21T05:21:21;16.63;;;10.43;;
5762;SDS011;2906;53.282;9.508;2023-11-21T05:22:23;18.00;;;10.35;;
5762;SDS011;2906;53.282;9.508;2023-11-21T05:23:24;17.52;;;9.90;;
5762;SDS011;2906;53.282;9.508;2023-11-21T05:24:27;18.20;;;9.95;;
5762;SDS011;2906;53.282;9.508;2023-11-21T05:25:28;14.30;;;9.65;;
5762;SDS011;2906;53.282;9.508;2023-11-21T05:26:30;15.38;;;10.13;;
5762;SDS011;2906;53.282;9.508;2023-11-21T05:27:32;19.90;;;10.10;;
5762;SDS011;2906;53.282;9.508;2023-11-21T05:28:34;15.57;;;10.77;;
5762;SDS011;2906;53.282;9.508;2023-11-21T05:29:38;16.45;;;10.43;;
5762;SDS011;2906;53.282;9.508;2023-11-21T05:30:39;19.33;;;11.70;;
5762;SDS011;2906;53.282;9.508;2023-11-21T05:31:41;17.88;;;10.20;;
5762;SDS011;2906;53.282;9.508;2023-11-21T05:32:42;15.45;;;10.10;;
5762;SDS011;2906;53.282;9.508;2023-11-21T05:33:44;21.10;;;10.90;;
5762;SDS011;2906;53.282;9.508;2023-11-21T05:34:46;18.58;;;11.30;;
5762;SDS011;2906;53.282;9.508;2023-11-21T05:35:47;18.17;;;10.90;;
5762;SDS011;2906;53.282;9.508;2023-11-21T05:36:50;19.17;;;11.40;;
5762;SDS011;2906;53.282;9.508;2023-11-21T05:37:51;17.98;;;10.73;;
5762;SDS011;2906;53.282;9.508;2023-11-21T05:38:53;18.60;;;11.35;;
5762;SDS011;2906;53.282;9.508;2023-11-21T05:39:54;17.98;;;10.05;;
5762;SDS011;2906;53.282;9.508;2023-11-21T05:40:56;17.15;;;11.55;;
5762;SDS011;2906;53.282;9.508;2023-11-21T05:41:58;16.58;;;10.27;;
5762;SDS011;2906;53.282;9.508;2023-11-21T05:43:00;18.40;;;11.68;;
5762;SDS011;2906;53.282;9.508;2023-11-21T05:44:02;18.88;;;10.00;;
5762;SDS011;2906;53.282;9.508;2023-11-21T05:45:05;16.92;;;9.70;;
5762;SDS011;2906;53.282;9.508;2023-11-21T05:46:10;19.80;;;10.80;;
5762;SDS011;2906;53.282;9.508;2023-11-21T05:47:11;18.90;;;10.77;;
5762;SDS011;2906;53.282;9.508;2023-11-21T05:48:14;17.42;;;10.55;;
5762;SDS011;2906;53.282;9.508;2023-11-21T05:49:15;16.30;;;10.50;;
5762;SDS011;2906;53.282;9.508;2023-11-21T05:50:21;18.48;;;10.60;;
5762;SDS011;2906;53.282;9.508;2023-11-21T05:51:22;18.25;;;10.90;;
5762;SDS011;2906;53.282;9.508;2023-11-21T05:52:25;21.58;;;11.07;;
5762;SDS011;2906;53.282;9.508;2023-11-21T05:53:26;20.30;;;10.95;;
5762;SDS011;2906;53.282;9.508;2023-11-21T05:54:27;19.10;;;10.63;;
5762;SDS011;2906;53.282;9.508;2023-11-21T05:55:29;16.60;;;10.60;;
5762;SDS011;2906;53.282;9.508;2023-11-21T05:56:31;17.02;;;10.43;;
5762;SDS011;2906;53.282;9.508;2023-11-21T05:57:33;17.25;;;11.18;;
5762;SDS011;2906;53.282;9.508;2023-11-21T05:58:36;18.10;;;10.57;;
5762;SDS011;2906;53.282;9.508;2023-11-21T05:59:37;18.50;;;10.63;;
5762;SDS011;2906;53.282;9.508;2023-11-21T06:00:40;15.70;;;10.45;;
5762;SDS011;2906;53.282;9.508;2023-11-21T06:01:42;17.17;;;10.25;;
5762;SDS011;2906;53.282;9.508;2023-11-21T06:02:45;16.67;;;10.32;;
5762;SDS011;2906;53.282;9.508;2023-11-21T06:03:47;16.83;;;10.02;;
5762;SDS011;2906;53.282;9.508;2023-11-21T06:04:49;17.23;;;9.93;;
5762;SDS011;2906;53.282;9.508;2023-11-21T06:05:50;16.58;;;10.10;;
5762;SDS011;2906;53.282;9.508;2023-11-21T06:06:54;23.70;;;11.05;;
5762;SDS011;2906;53.282;9.508;2023-11-21T06:07:55;25.60;;;11.10;;
5762;SDS011;2906;53.282;9.508;2023-11-21T06:08:58;17.08;;;10.60;;
5762;SDS011;2906;53.282;9.508;2023-11-21T06:10:00;19.83;;;9.63;;
5762;SDS011;2906;53.282;9.508;2023-11-21T06:11:02;15.70;;;10.50;;
5762;SDS011;2906;53.282;9.508;2023-11-21T06:12:04;19.50;;;11.23;;
5762;SDS011;2906;53.282;9.508;2023-11-21T06:13:06;14.75;;;9.90;;
5762;SDS011;2906;53.282;9.508;2023-11-21T06:14:08;15.95;;;9.25;;
5762;SDS011;2906;53.282;9.508;2023-11-21T06:15:11;19.98;;;9.40;;
5762;SDS011;2906;53.282;9.508;2023-11-21T06:16:15;15.48;;;10.10;;
5762;SDS011;2906;53.282;9.508;2023-11-21T06:17:19;16.10;;;9.50;;